Time;durP1;ratioP1;P1;durP2;ratioP2;P2;SDS_P1;SDS_P2;PMS_P1;PMS_P2;Temp;Humidity;BMP_temperature;BMP_pressure;BME280_temperature;BME280_humidity;BME280_pressure;Samples;Min_cycle;Max_cycle;Signal;HPM_P1;HPM_P2
2023/03/29 00:00:18;;;;;;;6.43;3.67;;;;;;;4.36;57.28;98696.25;5042447;28;20095;-77
2023/03/29 00:02:47;;;;;;;5.75;3.50;;;;;;;4.30;57.38;98680.19;5036830;28;20466;-77
2023/03/29 00:05:16;;;;;;;5.90;3.40;;;;;;;4.35;55.99;98699.09;5023514;28;20042;-77
2023/03/29 00:07:42;;;;;;;4.82;3.35;;;;;;;4.10;58.93;98733.34;5026297;28;20033;-76
2023/03/29 00:10:09;;;;;;;9.30;3.10;;;;;;;4.21;57.17;98740.81;5036095;28;20048;-76
2023/03/29 00:12:35;;;;;;;5.60;3.47;;;;;;;4.34;58.36;98734.78;5041292;28;20021;-76
2023/03/29 00:15:02;;;;;;;7.45;3.83;;;;;;;4.21;62.19;98740.81;5021968;28;20465;-75
2023/03/29 00:17:27;;;;;;;4.60;3.60;;;;;;;3.98;63.58;98745.50;5008079;28;20102;-75
2023/03/29 00:19:53;;;;;;;6.95;4.55;;;;;;;4.07;64.38;98736.38;5023060;28;20057;-78
2023/03/29 00:22:18;;;;;;;6.60;4.05;;;;;;;4.12;65.67;98729.47;5009951;28;20503;-78
2023/03/29 00:24:46;;;;;;;5.10;3.72;;;;;;;4.05;66.00;98720.59;5004279;28;20030;-78
2023/03/29 00:27:12;;;;;;;4.50;3.90;;;;;;;4.14;66.60;98724.78;5016904;28;20049;-78
2023/03/29 00:29:37;;;;;;;5.07;4.30;;;;;;;4.18;66.63;98712.69;5042987;28;20087;-77
2023/03/29 00:32:03;;;;;;;6.25;4.40;;;;;;;4.06;66.85;98703.56;5009046;28;20017;-78
2023/03/29 00:34:29;;;;;;;6.22;4.57;;;;;;;4.06;67.76;98692.91;5026104;28;20042;-79
2023/03/29 00:36:56;;;;;;;7.57;4.72;;;;;;;4.12;66.72;98684.16;5029652;28;20466;-79
2023/03/29 00:39:23;;;;;;;6.40;4.15;;;;;;;4.26;66.45;98669.09;5046063;28;20041;-77
2023/03/29 00:41:49;;;;;;;7.03;4.35;;;;;;;4.25;66.51;98672.78;5052333;28;20032;-78
2023/03/29 00:44:52;;;;;;;6.70;4.30;;;;;;;4.31;65.41;98674.69;5022015;28;20052;-79
2023/03/29 00:47:26;;;;;;;6.30;4.20;;;;;;;4.33;64.96;98674.47;5041261;28;20547;-79
2023/03/29 00:49:52;;;;;;;7.40;4.45;;;;;;;4.34;65.19;98673.47;5025218;28;20036;-80
2023/03/29 00:52:20;;;;;;;6.68;3.78;;;;;;;4.36;65.10;98658.09;5027835;28;20025;-79
2023/03/29 00:54:47;;;;;;;4.13;3.70;;;;;;;4.12;65.42;98649.50;5030706;28;20512;-78
2023/03/29 00:57:14;;;;;;;7.60;3.85;;;;;;;4.26;65.25;98662.94;5029576;28;20029;-79
2023/03/29 00:59:40;;;;;;;6.90;4.10;;;;;;;4.22;65.78;98661.69;5044258;28;20037;-79
2023/03/29 01:02:06;;;;;;;5.93;4.10;;;;;;;4.28;65.77;98655.56;5037962;28;20025;-78
2023/03/29 01:04:35;;;;;;;6.47;3.63;;;;;;;4.20;65.23;98654.69;5016515;28;20033;-77
2023/03/29 01:07:21;;;;;;;5.72;4.10;;;;;;;4.28;65.88;98644.91;5018709;28;20049;-77
2023/03/29 01:09:54;;;;;;;4.82;4.30;;;;;;;4.34;65.84;98638.81;5008142;28;20132;-77
2023/03/29 01:12:22;;;;;;;5.50;4.00;;;;;;;4.12;66.11;98606.88;5022478;28;20041;-78
2023/03/29 01:15:08;;;;;;;5.45;4.07;;;;;;;4.26;65.62;98628.28;5033476;28;20463;-77
2023/03/29 01:17:34;;;;;;;6.13;3.90;;;;;;;4.22;66.34;98631.31;5025610;28;20037;-77
2023/03/29 01:20:23;;;;;;;6.43;4.70;;;;;;;4.30;66.59;98630.38;5023604;28;20035;-78
2023/03/29 01:23:27;;;;;;;6.45;4.85;;;;;;;4.30;67.26;98621.53;5026268;28;20450;-78
2023/03/29 01:26:13;;;;;;;4.68;3.90;;;;;;;4.30;68.83;98616.22;5023196;28;20057;-78
2023/03/29 01:28:47;;;;;;;6.72;4.53;;;;;;;4.21;68.07;98607.53;5007945;28;20076;-76
2023/03/29 01:31:24;;;;;;;6.45;4.38;;;;;;;4.16;69.32;98609.97;5020744;28;20043;-76
2023/03/29 01:33:54;;;;;;;6.13;4.68;;;;;;;4.20;69.38;98601.38;5023449;28;20038;-76
2023/03/29 01:36:27;;;;;;;8.90;4.22;;;;;;;4.22;69.24;98597.72;5029663;28;20039;-77
2023/03/29 01:38:56;;;;;;;6.88;4.95;;;;;;;4.36;69.17;98597.63;5006131;28;20434;-76
2023/03/29 01:41:30;;;;;;;7.30;4.63;;;;;;;4.31;69.02;98591.22;5038261;28;20109;-77
2023/03/29 01:44:02;;;;;;;7.22;5.35;;;;;;;4.24;70.22;98585.84;5033467;28;20116;-77
2023/03/29 01:46:40;;;;;;;6.60;4.90;;;;;;;4.29;68.82;98582.59;5011771;28;20040;-77
2023/03/29 01:49:26;;;;;;;6.18;4.72;;;;;;;4.22;70.28;98572.69;5025912;28;20033;-78
2023/03/29 01:51:59;;;;;;;5.70;4.87;;;;;;;4.10;70.46;98560.13;5040830;28;20033;-77
2023/03/29 01:54:30;;;;;;;7.95;5.65;;;;;;;4.10;71.43;98563.59;5030481;28;20155;-77
2023/03/29 01:56:57;;;;;;;8.13;5.78;;;;;;;4.31;70.83;98570.72;5020880;28;20041;-77
2023/03/29 01:59:27;;;;;;;6.80;5.82;;;;;;;4.26;70.71;98557.16;5030478;28;20025;-77
2023/03/29 02:01:56;;;;;;;7.38;5.72;;;;;;;4.28;70.63;98559.59;5023226;28;20055;-77
2023/03/29 02:04:34;;;;;;;8.13;6.63;;;;;;;4.26;71.17;98556.31;5003485;28;20064;-78
2023/03/29 02:07:01;;;;;;;7.43;5.82;;;;;;;4.26;71.05;98561.66;5027605;28;20049;-77
2023/03/29 02:09:27;;;;;;;7.38;6.18;;;;;;;4.30;71.32;98561.06;5016832;28;20025;-77
2023/03/29 02:11:56;;;;;;;8.55;7.85;;;;;;;4.31;71.65;98565.38;5026864;28;20053;-77
2023/03/29 02:14:23;;;;;;;9.68;8.50;;;;;;;4.25;71.63;98565.34;5030089;28;20027;-79
2023/03/29 02:16:48;;;;;;;9.02;8.23;;;;;;;4.17;71.91;98559.16;5029127;28;20060;-78
2023/03/29 02:19:15;;;;;;;9.60;8.80;;;;;;;4.13;72.42;98555.19;5011816;28;20515;-78
2023/03/29 02:22:04;;;;;;;8.88;8.07;;;;;;;3.99;72.89;98550.78;5029021;28;20033;-78
2023/03/29 02:24:33;;;;;;;10.15;9.32;;;;;;;4.07;73.05;98555.16;5031182;28;20037;-78
2023/03/29 02:26:59;;;;;;;8.85;8.05;;;;;;;4.29;71.64;98550.59;5025286;28;20363;-78
2023/03/29 02:29:25;;;;;;;9.45;8.68;;;;;;;4.26;71.79;98557.16;5006228;28;20044;-77
2023/03/29 02:31:54;;;;;;;9.50;8.60;;;;;;;4.22;72.95;98555.06;5019718;28;20626;-77
2023/03/29 02:34:25;;;;;;;9.43;8.65;;;;;;;4.26;71.60;98550.97;5010544;28;20041;-77
2023/03/29 02:36:55;;;;;;;9.07;8.27;;;;;;;4.14;72.98;98537.38;5010148;28;20036;-77
2023/03/29 02:39:24;;;;;;;10.43;9.60;;;;;;;4.19;72.45;98530.44;4992462;28;20032;-77
2023/03/29 02:41:50;;;;;;;9.63;8.73;;;;;;;4.10;72.44;98536.97;5021736;28;20056;-77
2023/03/29 02:44:20;;;;;;;8.90;8.20;;;;;;;4.24;71.78;98531.69;5039473;28;20033;-77
2023/03/29 02:46:49;;;;;;;8.30;7.50;;;;;;;4.22;71.07;98539.06;5035720;28;20098;-77
2023/03/29 02:49:15;;;;;;;7.95;6.78;;;;;;;4.26;70.60;98542.97;5040402;28;20032;-77
2023/03/29 02:51:41;;;;;;;7.47;6.75;;;;;;;4.20;71.16;98521.41;5038385;28;20101;-78
2023/03/29 02:54:17;;;;;;;7.88;6.28;;;;;;;4.16;70.18;98504.19;5027511;28;20092;-77
2023/03/29 02:56:55;;;;;;;8.50;6.05;;;;;;;4.01;70.17;98492.00;5002092;28;20034;-77
2023/03/29 02:59:21;;;;;;;7.47;6.07;;;;;;;4.08;70.48;98499.00;5028054;28;20075;-77
2023/03/29 03:01:47;;;;;;;6.32;5.72;;;;;;;4.13;69.93;98493.91;5038111;28;20025;-77
2023/03/29 03:04:13;;;;;;;6.88;5.82;;;;;;;4.07;69.84;98494.69;5026844;28;20045;-77
2023/03/29 03:06:39;;;;;;;6.28;4.80;;;;;;;4.06;69.47;98497.56;5015974;28;20204;-77
2023/03/29 03:09:04;;;;;;;7.07;5.35;;;;;;;4.10;69.11;98494.31;5030799;28;20079;-77
2023/03/29 03:11:33;;;;;;;5.75;4.75;;;;;;;4.12;69.40;98497.59;5026199;28;20031;-78
2023/03/29 03:13:58;;;;;;;5.25;4.75;;;;;;;4.17;69.00;98491.69;5015731;28;20113;-78
2023/03/29 03:16:24;;;;;;;7.72;5.15;;;;;;;4.15;69.21;98486.53;5008626;28;20021;-78
2023/03/29 03:18:50;;;;;;;7.25;5.35;;;;;;;4.14;68.98;98479.56;5007459;28;20029;-78
2023/03/29 03:21:17;;;;;;;6.47;4.97;;;;;;;4.12;68.72;98486.13;5034978;28;20033;-78
2023/03/29 03:23:47;;;;;;;6.90;5.03;;;;;;;4.16;69.38;98490.84;5016866;28;20033;-78
2023/03/29 03:26:14;;;;;;;7.53;6.22;;;;;;;4.09;70.27;98491.84;5021848;28;20415;-77
2023/03/29 03:28:41;;;;;;;9.15;5.65;;;;;;;4.12;68.98;98497.59;5034355;28;20547;-77
2023/03/29 03:31:14;;;;;;;7.45;5.28;;;;;;;4.11;70.25;98495.94;5034522;28;20037;-78
2023/03/29 03:34:18;;;;;;;6.93;4.88;;;;;;;4.10;69.54;98491.66;5013300;28;20041;-78
2023/03/29 03:37:04;;;;;;;6.53;5.10;;;;;;;4.09;69.94;98498.00;5046191;28;20033;-78
2023/03/29 03:39:32;;;;;;;6.55;4.82;;;;;;;4.13;69.21;98485.91;5020701;28;20029;-76
2023/03/29 03:41:58;;;;;;;5.68;4.97;;;;;;;4.10;69.88;98494.31;5030204;28;20021;-76
2023/03/29 03:44:24;;;;;;;8.45;5.22;;;;;;;4.04;69.79;98484.44;5008419;28;20056;-75
2023/03/29 03:47:07;;;;;;;6.68;5.47;;;;;;;4.03;70.44;98472.13;5021722;28;20025;-76
2023/03/29 03:49:35;;;;;;;5.95;5.03;;;;;;;3.99;70.48;98465.53;5027261;28;20032;-75
2023/03/29 03:52:01;;;;;;;7.78;5.47;;;;;;;4.02;70.20;98454.50;5023072;28;20536;-76
2023/03/29 03:54:26;;;;;;;7.47;5.97;;;;;;;4.04;70.84;98463.09;5022564;28;20034;-76
2023/03/29 03:57:12;;;;;;;8.05;5.15;;;;;;;4.18;69.78;98462.16;5005365;28;20041;-76
2023/03/29 03:59:46;;;;;;;5.88;4.93;;;;;;;4.08;71.04;98469.69;5029452;28;20037;-76
2023/03/29 04:02:16;;;;;;;7.15;5.57;;;;;;;4.10;71.34;98462.34;5026366;28;20036;-76
2023/03/29 04:04:43;;;;;;;8.05;5.72;;;;;;;4.20;70.19;98475.31;5039149;28;20037;-76
2023/03/29 04:07:16;;;;;;;6.97;6.22;;;;;;;4.13;71.25;98472.59;5026492;28;20021;-76
2023/03/29 04:10:10;;;;;;;7.38;6.68;;;;;;;4.08;71.40;98458.22;5027231;28;20040;-77
2023/03/29 04:12:51;;;;;;;7.25;6.20;;;;;;;4.12;71.50;98454.97;5025106;28;20120;-76
2023/03/29 04:15:19;;;;;;;7.60;6.30;;;;;;;4.02;71.26;98454.50;5025943;28;20033;-77
2023/03/29 04:17:50;;;;;;;7.68;6.85;;;;;;;4.06;72.19;98453.06;5030379;28;20095;-76
2023/03/29 04:20:42;;;;;;;7.90;7.13;;;;;;;4.03;72.74;98440.16;5042390;28;20475;-78
2023/03/29 04:23:09;;;;;;;8.20;7.43;;;;;;;4.02;72.77;98438.50;5024167;28;20034;-78
2023/03/29 04:25:35;;;;;;;9.40;7.82;;;;;;;4.11;73.25;98455.16;5033615;28;20043;-77
2023/03/29 04:28:31;;;;;;;9.43;8.63;;;;;;;4.13;72.66;98451.25;5030136;28;20033;-79
2023/03/29 04:31:16;;;;;;;12.23;10.95;;;;;;;4.08;72.69;98437.72;5043241;28;20044;-79
2023/03/29 04:34:05;;;;;;;11.32;10.43;;;;;;;4.14;72.74;98436.94;5028599;28;20037;-78
2023/03/29 04:36:30;;;;;;;12.48;11.57;;;;;;;4.05;73.83;98424.81;5025259;28;20383;-77
2023/03/29 04:38:57;;;;;;;12.60;11.48;;;;;;;4.08;73.76;98429.72;5035132;28;20079;-77
2023/03/29 04:41:26;;;;;;;12.63;11.63;;;;;;;4.08;73.90;98420.91;5005202;28;20025;-77
2023/03/29 04:43:56;;;;;;;13.68;12.57;;;;;;;4.19;73.19;98429.19;5029275;28;20048;-76
2023/03/29 04:46:25;;;;;;;14.05;13.13;;;;;;;4.06;73.86;98423.75;5012794;28;20465;-76
2023/03/29 04:49:09;;;;;;;15.15;14.20;;;;;;;4.09;74.29;98426.03;5041830;28;20501;-76
2023/03/29 04:51:39;;;;;;;13.98;13.13;;;;;;;4.09;73.51;98411.88;5022736;28;20033;-77
2023/03/29 04:54:05;;;;;;;12.10;11.27;;;;;;;4.22;73.71;98416.47;5021638;28;20034;-76
2023/03/29 04:56:39;;;;;;;14.20;12.93;;;;;;;4.15;73.84;98425.25;5026482;28;20037;-77
2023/03/29 04:59:34;;;;;;;15.43;14.10;;;;;;;4.27;74.19;98427.38;5036745;28;20838;-76
2023/03/29 05:02:03;;;;;;;18.02;16.73;;;;;;;4.17;74.31;98420.56;5037328;28;20555;-78
2023/03/29 05:04:31;;;;;;;15.88;14.88;;;;;;;4.24;74.96;98425.09;5022240;28;20423;-77
2023/03/29 05:07:06;;;;;;;18.38;17.17;;;;;;;4.17;74.81;98409.06;5027878;28;20036;-78
2023/03/29 05:09:31;;;;;;;17.35;16.35;;;;;;;4.13;74.86;98405.97;5028221;28;20029;-78
2023/03/29 05:11:58;;;;;;;20.73;19.42;;;;;;;4.24;75.26;98417.91;5012946;28;20021;-79
2023/03/29 05:14:24;;;;;;;20.55;19.25;;;;;;;4.19;74.80;98402.53;5022396;28;20041;-78
2023/03/29 05:16:50;;;;;;;20.55;19.23;;;;;;;4.29;75.12;98417.31;5010967;28;20650;-79
2023/03/29 05:19:15;;;;;;;23.42;21.83;;;;;;;4.30;75.34;98409.09;5040935;28;20040;-77
2023/03/29 05:21:45;;;;;;;23.35;22.05;;;;;;;4.35;75.81;98417.34;5025001;28;20033;-77
2023/03/29 05:24:15;;;;;;;22.65;21.27;;;;;;;4.34;75.16;98425.53;5021910;28;20033;-78
2023/03/29 05:26:52;;;;;;;22.95;21.75;;;;;;;4.34;75.09;98418.34;5006492;28;20041;-78
2023/03/29 05:29:19;;;;;;;22.92;21.73;;;;;;;4.44;74.92;98420.63;5027717;28;20072;-76
2023/03/29 05:31:51;;;;;;;23.60;22.23;;;;;;;4.42;75.14;98417.34;5027630;28;20016;-75
2023/03/29 05:34:17;;;;;;;20.92;19.65;;;;;;;4.47;74.79;98420.25;5021186;28;20035;-75
2023/03/29 05:36:47;;;;;;;20.88;19.70;;;;;;;4.38;75.09;98416.13;5037973;28;20029;-76
2023/03/29 05:39:14;;;;;;;23.58;22.23;;;;;;;4.41;75.12;98413.84;5029856;28;20029;-76
2023/03/29 05:41:40;;;;;;;24.77;23.38;;;;;;;4.45;75.41;98412.47;5045027;28;20445;-77
2023/03/29 05:44:24;;;;;;;23.90;22.58;;;;;;;4.47;75.31;98409.59;5030232;28;20048;-78
2023/03/29 05:46:56;;;;;;;22.45;21.23;;;;;;;4.55;74.38;98412.09;5023680;28;20037;-77
2023/03/29 05:49:22;;;;;;;25.17;23.52;;;;;;;4.58;75.01;98417.00;5042526;28;20121;-76
2023/03/29 05:52:07;;;;;;;24.05;22.55;;;;;;;4.54;74.94;98415.75;5045445;28;20029;-77
2023/03/29 05:54:34;;;;;;;25.20;23.70;;;;;;;4.54;75.49;98413.09;5026880;28;20044;-77
2023/03/29 05:57:00;;;;;;;24.70;23.20;;;;;;;4.58;75.31;98411.66;5017801;28;20030;-77
2023/03/29 05:59:28;;;;;;;26.52;25.02;;;;;;;4.54;75.20;98405.09;5016684;28;20037;-77
2023/03/29 06:01:54;;;;;;;23.05;21.75;;;;;;;4.56;75.01;98408.38;5021286;28;20067;-76
2023/03/29 06:04:20;;;;;;;25.02;23.60;;;;;;;4.64;75.11;98410.88;5017419;28;20119;-76
2023/03/29 06:07:11;;;;;;;24.98;23.67;;;;;;;4.66;75.18;98414.16;5025065;28;20033;-76
2023/03/29 06:09:38;;;;;;;25.05;23.45;;;;;;;4.76;75.33;98393.25;5038883;28;20037;-78
2023/03/29 06:12:04;;;;;;;27.65;25.90;;;;;;;4.89;74.75;98403.94;5033829;28;20036;-80
2023/03/29 06:14:38;;;;;;;27.35;25.92;;;;;;;4.75;75.03;98403.09;5011513;28;20487;-78
2023/03/29 06:17:15;;;;;;;23.95;22.65;;;;;;;4.91;74.49;98401.88;5032458;28;20033;-78
2023/03/29 06:19:40;;;;;;;25.20;23.70;;;;;;;4.87;75.22;98395.31;5034438;28;20044;-77
2023/03/29 06:22:06;;;;;;;25.63;23.98;;;;;;;4.93;74.75;98393.66;5030290;28;20025;-78
2023/03/29 06:24:32;;;;;;;26.63;25.08;;;;;;;4.98;75.03;98392.03;5023767;28;20029;-77
2023/03/29 06:27:03;;;;;;;27.50;25.90;;;;;;;4.93;74.92;98399.00;5024519;28;20021;-78
2023/03/29 06:29:29;;;;;;;26.30;24.90;;;;;;;4.94;74.77;98390.81;5030381;28;20505;-77
2023/03/29 06:31:56;;;;;;;26.52;25.00;;;;;;;4.86;75.08;98399.00;5031811;28;20060;-76
2023/03/29 06:34:39;;;;;;;26.10;24.65;;;;;;;5.02;74.84;98406.63;5046637;28;20062;-78
2023/03/29 06:37:20;;;;;;;25.58;23.98;;;;;;;5.05;74.04;98398.22;5024730;28;20514;-76
2023/03/29 06:39:55;;;;;;;23.70;22.40;;;;;;;5.00;74.68;98400.66;5035471;28;20029;-78
2023/03/29 06:42:30;;;;;;;23.77;22.38;;;;;;;5.09;74.65;98399.44;5016120;28;20036;-78
2023/03/29 06:45:25;;;;;;;23.20;21.83;;;;;;;5.30;74.37;98395.75;5028893;28;20029;-77
2023/03/29 06:47:52;;;;;;;23.98;22.58;;;;;;;5.28;74.22;98403.13;5046287;28;20102;-78
2023/03/29 06:50:17;;;;;;;23.02;21.50;;;;;;;5.28;74.60;98409.31;5034683;28;20487;-77
2023/03/29 06:52:56;;;;;;;24.15;22.55;;;;;;;5.16;73.74;98389.59;5022353;28;20040;-77
2023/03/29 06:55:23;;;;;;;21.73;20.33;;;;;;;5.52;73.60;98406.00;5051035;28;20545;-78
2023/03/29 06:57:49;;;;;;;21.80;20.42;;;;;;;5.66;73.67;98411.34;5021768;28;20037;-78
2023/03/29 07:00:17;;;;;;;20.48;19.17;;;;;;;5.68;73.27;98420.78;5019493;28;20041;-78
2023/03/29 07:03:06;;;;;;;19.35;18.10;;;;;;;5.56;73.37;98422.44;5023054;28;20048;-77
2023/03/29 07:05:35;;;;;;;20.90;19.35;;;;;;;5.41;73.60;98413.84;5028136;28;20097;-78
2023/03/29 07:10:42;;;;;;;20.38;19.08;;;;;;;5.67;73.12;98423.66;5030219;28;20403;-78
2023/03/29 07:13:27;;;;;;;21.50;19.88;;;;;;;5.66;72.86;98417.50;5025302;28;20040;-78
2023/03/29 07:15:54;;;;;;;17.88;16.73;;;;;;;5.77;72.46;98413.34;5025447;28;20041;-77
2023/03/29 07:18:44;;;;;;;20.58;18.40;;;;;;;5.76;72.63;98411.72;5025619;28;20022;-78
2023/03/29 07:21:18;;;;;;;18.65;17.15;;;;;;;5.76;71.87;98411.72;5035208;28;20025;-78
2023/03/29 07:23:44;;;;;;;17.75;16.55;;;;;;;5.80;72.71;98412.94;5015519;28;20035;-76
2023/03/29 07:26:10;;;;;;;21.02;18.60;;;;;;;5.74;72.06;98395.09;5029625;28;20021;-77
2023/03/29 07:28:39;;;;;;;27.92;24.77;;;;;;;5.84;72.60;98419.50;5045446;28;20044;-76
2023/03/29 07:31:06;;;;;;;26.83;23.92;;;;;;;5.95;71.68;98424.28;5027701;28;20088;-76
2023/03/29 07:33:36;;;;;;;20.92;19.05;;;;;;;6.06;72.19;98424.44;5028365;28;20067;-78
2023/03/29 07:36:04;;;;;;;20.42;18.85;;;;;;;6.20;71.77;98419.88;5011544;28;20040;-78
2023/03/29 07:38:31;;;;;;;18.73;17.23;;;;;;;6.26;71.48;98413.66;5024350;28;20136;-77
2023/03/29 07:41:05;;;;;;;16.02;15.02;;;;;;;6.23;72.16;98424.81;5013920;28;20026;-77
2023/03/29 07:44:07;;;;;;;16.55;15.45;;;;;;;6.28;71.59;98427.66;5019053;28;20048;-75
2023/03/29 07:46:34;;;;;;;15.23;13.90;;;;;;;6.36;71.40;98418.56;5024544;28;20084;-76
2023/03/29 07:49:00;;;;;;;15.93;14.63;;;;;;;6.46;71.25;98419.78;5023116;28;20394;-77
2023/03/29 07:51:26;;;;;;;16.40;14.93;;;;;;;6.67;71.11;98432.03;5020302;28;20096;-77
2023/03/29 07:53:59;;;;;;;13.60;12.55;;;;;;;6.60;70.80;98421.34;5024811;28;20021;-77
2023/03/29 07:56:33;;;;;;;13.88;12.88;;;;;;;6.54;70.26;98432.91;5038046;28;20046;-77
2023/03/29 07:59:11;;;;;;;13.23;12.13;;;;;;;6.77;69.64;98422.47;5013300;28;20138;-77
2023/03/29 08:01:39;;;;;;;12.90;11.60;;;;;;;6.97;69.75;98417.03;5039428;28;20108;-77
2023/03/29 08:04:05;;;;;;;12.40;11.18;;;;;;;7.01;69.58;98422.75;5042003;28;20025;-77
2023/03/29 08:07:03;;;;;;;11.82;10.65;;;;;;;6.80;69.52;98416.72;5018256;28;20117;-77
2023/03/29 08:09:47;;;;;;;13.90;10.40;;;;;;;6.83;69.38;98410.94;5025476;28;20056;-77
2023/03/29 08:12:13;;;;;;;15.15;10.50;;;;;;;7.40;68.18;98417.09;5041401;28;20493;-78
2023/03/29 08:14:39;;;;;;;10.23;9.43;;;;;;;7.43;69.21;98416.66;5009850;28;20029;-77
2023/03/29 08:17:21;;;;;;;9.85;8.85;;;;;;;7.47;67.84;98407.97;5025629;28;20039;-77
2023/03/29 08:19:48;;;;;;;10.20;9.20;;;;;;;7.45;68.24;98409.22;5023474;28;20106;-76
2023/03/29 08:22:15;;;;;;;9.80;9.00;;;;;;;7.35;68.61;98419.63;5022767;28;20028;-77
2023/03/29 08:25:04;;;;;;;7.93;7.32;;;;;;;7.34;67.75;98429.53;5043063;28;20402;-77
2023/03/29 08:27:36;;;;;;;9.63;8.68;;;;;;;7.50;67.86;98428.97;5013939;28;20047;-77
2023/03/29 08:30:03;;;;;;;11.25;10.15;;;;;;;7.39;68.16;98431.56;5011525;28;20406;-77
2023/03/29 08:32:30;;;;;;;20.35;10.10;;;;;;;7.82;69.18;98428.91;5041285;28;20017;-77
2023/03/29 08:34:55;;;;;;;8.70;7.90;;;;;;;7.79;67.44;98432.84;5017899;28;20040;-78
2023/03/29 08:37:31;;;;;;;8.80;7.15;;;;;;;7.72;67.07;98426.72;5011264;28;20430;-77
2023/03/29 08:39:57;;;;;;;8.57;7.30;;;;;;;8.07;65.35;98433.19;5012864;28;20120;-77
2023/03/29 08:43:07;;;;;;;8.48;6.50;;;;;;;7.64;66.67;98443.09;5042889;28;20459;-77
2023/03/29 08:46:02;;;;;;;7.30;6.30;;;;;;;7.85;67.26;98431.13;5030058;28;20048;-77
2023/03/29 08:48:32;;;;;;;7.13;6.40;;;;;;;8.22;66.08;98439.00;5005594;28;20028;-77
2023/03/29 08:51:16;;;;;;;7.10;6.32;;;;;;;7.87;66.50;98429.88;5041365;28;20033;-78
2023/03/29 08:53:46;;;;;;;7.93;7.10;;;;;;;8.09;66.69;98428.41;5028464;28;20072;-78
2023/03/29 08:56:30;;;;;;;8.20;6.50;;;;;;;8.21;66.26;98423.94;5029718;28;20029;-78
2023/03/29 08:59:22;;;;;;;6.45;5.75;;;;;;;8.33;65.66;98416.81;5012274;28;20033;-77
2023/03/29 09:01:49;;;;;;;7.20;6.50;;;;;;;8.17;67.15;98420.06;5001894;28;20033;-78
2023/03/29 09:04:17;;;;;;;7.75;6.40;;;;;;;8.15;66.54;98416.78;5027404;28;20025;-77
2023/03/29 09:06:51;;;;;;;;;;;;;;;8.46;65.61;98417.69;5024445;28;20036;-77
2023/03/29 09:09:23;;;;;;;9.18;6.35;;;;;;;8.88;65.10;98411.34;5022638;28;19913;-77
2023/03/29 09:12:00;;;;;;;6.25;5.18;;;;;;;8.92;64.67;98417.91;5010666;28;20040;-77
2023/03/29 09:14:34;;;;;;;8.00;6.35;;;;;;;9.17;63.27;98409.69;4999120;28;20040;-78
2023/03/29 09:17:23;;;;;;;8.38;5.57;;;;;;;9.48;62.71;98402.16;5041951;28;20052;-77
2023/03/29 09:20:03;;;;;;;8.85;5.88;;;;;;;9.61;63.48;98409.97;5026601;28;20383;-78
2023/03/29 09:22:57;;;;;;;9.15;5.43;;;;;;;9.43;63.80;98404.72;5038036;28;20026;-77
2023/03/29 09:26:00;;;;;;;7.00;5.28;;;;;;;9.74;61.70;98407.09;5038194;28;20147;-78
2023/03/29 09:29:17;;;;;;;6.55;5.00;;;;;;;9.50;62.83;98405.41;5003604;28;20061;-77
2023/03/29 09:31:43;;;;;;;7.38;4.93;;;;;;;9.80;61.56;98404.53;5034268;28;20495;-77
2023/03/29 09:34:27;;;;;;;7.22;5.07;;;;;;;9.57;62.77;98406.13;5004695;28;20059;-77
2023/03/29 09:37:02;;;;;;;7.07;5.20;;;;;;;9.65;61.18;98408.50;5021538;28;20261;-77
2023/03/29 09:39:28;;;;;;;6.32;4.45;;;;;;;10.02;60.71;98413.63;5018036;28;20135;-78
2023/03/29 09:42:06;;;;;;;6.93;4.75;;;;;;;10.03;60.61;98404.50;5021628;28;20572;-78
2023/03/29 09:44:36;;;;;;;6.47;4.82;;;;;;;9.56;60.14;98406.38;5024338;28;20029;-77
2023/03/29 09:47:27;;;;;;;11.93;4.82;;;;;;;9.85;61.36;98412.72;5024975;28;20077;-77
2023/03/29 09:49:58;;;;;;;13.02;5.22;;;;;;;9.93;61.08;98415.03;5011801;28;20037;-77
2023/03/29 09:52:23;;;;;;;6.80;5.20;;;;;;;10.23;60.67;98404.97;5022222;28;20061;-77
2023/03/29 09:55:00;;;;;;;6.75;4.45;;;;;;;10.56;59.00;98405.13;5004825;28;20377;-78
2023/03/29 09:57:45;;;;;;;11.55;5.70;;;;;;;10.67;62.03;98409.66;5025143;28;20041;-78
2023/03/29 10:00:13;;;;;;;5.40;4.70;;;;;;;10.93;58.83;98400.16;5020376;28;20052;-77
2023/03/29 10:02:49;;;;;;;6.28;4.80;;;;;;;10.47;60.05;98401.16;5034534;28;20028;-77
2023/03/29 10:05:15;;;;;;;5.70;4.82;;;;;;;10.27;58.82;98398.03;5008873;28;20039;-77
2023/03/29 10:07:46;;;;;;;7.85;5.38;;;;;;;10.65;60.15;98397.47;5047835;28;20521;-78
2023/03/29 10:10:21;;;;;;;12.93;5.93;;;;;;;11.37;55.53;98401.22;5022957;28;20036;-77
2023/03/29 10:12:51;;;;;;;13.70;5.63;;;;;;;11.23;58.57;98395.31;5038137;28;20399;-77
2023/03/29 10:15:17;;;;;;;5.80;4.68;;;;;;;10.28;58.47;98407.78;5024315;28;20033;-77
2023/03/29 10:17:45;;;;;;;8.98;5.00;;;;;;;10.58;58.86;98403.00;5011315;28;20053;-78
2023/03/29 10:20:17;;;;;;;6.05;4.53;;;;;;;10.90;57.56;98395.25;5023838;28;20116;-77
2023/03/29 10:22:55;;;;;;;9.27;4.80;;;;;;;11.23;58.09;98384.53;5035992;28;20123;-77
2023/03/29 10:25:25;;;;;;;5.43;4.55;;;;;;;11.24;57.77;98396.16;5038130;28;20041;-77
2023/03/29 10:27:51;;;;;;;4.50;4.03;;;;;;;11.76;55.90;98379.50;5027323;28;20056;-77
2023/03/29 10:30:22;;;;;;;5.47;4.75;;;;;;;11.36;58.73;98386.09;5026494;28;20059;-77
2023/03/29 10:32:55;;;;;;;6.30;4.85;;;;;;;10.95;57.78;98390.78;5043607;28;20135;-77
2023/03/29 10:35:24;;;;;;;4.57;4.18;;;;;;;10.82;57.53;98383.00;5026919;28;20037;-78
2023/03/29 10:37:52;;;;;;;5.63;4.30;;;;;;;10.82;56.84;98385.72;5005778;28;20138;-77
2023/03/29 10:40:25;;;;;;;6.90;4.32;;;;;;;10.77;57.93;98382.91;5020260;28;20048;-77
2023/03/29 10:42:52;;;;;;;5.25;4.28;;;;;;;10.87;59.05;98383.09;5021127;28;20586;-77
2023/03/29 10:45:30;;;;;;;5.78;4.20;;;;;;;10.86;57.58;98378.78;5039670;28;20033;-77
2023/03/29 10:47:57;;;;;;;7.80;4.57;;;;;;;10.81;57.35;98389.44;5024654;28;20497;-77
2023/03/29 10:50:25;;;;;;;5.95;3.42;;;;;;;11.24;54.71;98377.28;5020430;28;20025;-77
2023/03/29 10:52:51;;;;;;;6.32;3.97;;;;;;;11.16;56.32;98372.28;5022250;28;20045;-77
2023/03/29 10:55:18;;;;;;;5.80;4.10;;;;;;;11.25;55.92;98374.31;5043418;28;20036;-77
2023/03/29 10:58:00;;;;;;;4.60;3.72;;;;;;;11.25;56.38;98370.84;5022866;28;20124;-76
2023/03/29 11:00:48;;;;;;;4.90;3.72;;;;;;;11.30;55.03;98366.31;5018941;28;20033;-77
2023/03/29 11:03:32;;;;;;;4.90;3.70;;;;;;;11.60;54.69;98357.88;5026624;28;20037;-77
2023/03/29 11:06:10;;;;;;;5.95;3.60;;;;;;;11.54;55.29;98366.97;5042927;28;20496;-77
2023/03/29 11:08:45;;;;;;;4.88;3.85;;;;;;;11.66;54.51;98356.91;5026199;28;20105;-77
2023/03/29 11:11:23;;;;;;;6.28;4.10;;;;;;;11.65;53.62;98358.78;5000268;28;20034;-77
2023/03/29 11:14:03;;;;;;;5.55;4.00;;;;;;;11.53;54.15;98362.63;5013903;28;20041;-77
2023/03/29 11:17:07;;;;;;;4.60;3.22;;;;;;;11.55;53.11;98355.13;5043204;28;20471;-77
2023/03/29 11:19:56;;;;;;;2.90;2.60;;;;;;;11.48;51.93;98355.28;5045202;28;20087;-77
2023/03/29 11:22:34;;;;;;;3.45;3.00;;;;;;;11.77;52.17;98354.16;5014021;28;20028;-77
2023/03/29 11:25:15;;;;;;;5.72;2.97;;;;;;;12.09;52.80;98365.09;5043046;28;20121;-77
2023/03/29 11:28:00;;;;;;;5.00;2.70;;;;;;;11.71;53.09;98360.56;5039916;28;20032;-77
2023/03/29 11:30:56;;;;;;;5.88;2.75;;;;;;;11.52;52.38;98356.44;5039394;28;20042;-77
2023/03/29 11:33:46;;;;;;;4.20;2.75;;;;;;;11.64;52.92;98356.34;5036573;28;20143;-78
2023/03/29 11:36:22;;;;;;;4.55;2.60;;;;;;;11.55;54.77;98349.75;5028091;28;20044;-77
2023/03/29 11:39:03;;;;;;;5.25;2.65;;;;;;;11.42;52.16;98356.28;5038927;28;20040;-78
2023/03/29 11:41:37;;;;;;;3.88;2.78;;;;;;;11.72;53.82;98347.84;5024186;28;20659;-77
2023/03/29 11:44:21;;;;;;;3.45;2.55;;;;;;;11.74;52.88;98345.72;5026530;28;20083;-77
2023/03/29 11:46:52;;;;;;;3.85;2.50;;;;;;;11.71;52.17;98349.75;5029782;28;20032;-77
2023/03/29 11:49:42;;;;;;;3.25;2.70;;;;;;;11.99;53.55;98346.09;5017140;28;20072;-78
2023/03/29 11:52:16;;;;;;;4.10;2.35;;;;;;;12.16;53.55;98346.06;5021135;28;20082;-78
2023/03/29 11:54:47;;;;;;;4.65;2.70;;;;;;;11.94;53.33;98343.31;5003456;28;20068;-77
2023/03/29 11:57:27;;;;;;;5.78;2.67;;;;;;;11.95;52.35;98339.53;5045244;28;20074;-77
2023/03/29 12:00:00;;;;;;;4.50;2.40;;;;;;;12.35;51.49;98331.97;5029509;28;20037;-77
2023/03/29 12:02:38;;;;;;;4.03;2.60;;;;;;;12.18;52.87;98336.59;5033155;28;20503;-77
2023/03/29 12:05:22;;;;;;;4.40;2.55;;;;;;;12.15;54.15;98339.00;5046263;28;20045;-78